Impacts TAF Board
For situational awareness. Not to be used for flight planning purposes.
IDs:

KHOU - Houston/Hobby Arpt, TX, US

Issued at 0520 UTC 27 Sep 2020
Updated at 0751 UTC 27 Sep 2020
Potential Impact None Slight Moderate High
Time0653Z 27/08Z 27/09Z 27/10Z 27/11Z 27/12Z 27/13Z 27/14Z 27/15Z 27/16Z 27/17Z 27/18Z 27/19Z 27/20Z>>
Type OBS PRVL PRVL PRVL PRVL PRVL PRVL PRVL PRVL PRVL PRVL PRVL PRVL PRVL
VIS 10 >6 >6 >6 >6 >6 >6 >6 >6 >6 >6 >6 >6 >6
CIG -- -- -- 25 25 25 25 25 -- -- -- -- -- --
Cover FEW FEW FEW BKN BKN BKN BKN BKN SCT SCT SCT SCT SCT SCT
FltCat VFR VFR VFR MVFR MVFR MVFR MVFR MVFR VFR VFR VFR VFR VFR VFR
WX -- -- -- -- -- -- -- -- -- -- -- -- -- --
WDir 160 160 160 190 190 190 190 190 190 190 180 180 180 180
WSpd 8 8 8 3 3 3 3 3 8 8 12 12 12 12
WGst -- -- -- -- -- -- -- -- -- -- -- -- -- --
R04/22
XWnd -7 -7 -7 -2 -2 -2 -2 -2 -4 -4 -8 -8 -8 -8
HWnd -4 -4 -4 -2 -2 -2 -2 -2 -7 -7 -9 -9 -9 -9
R12/30
XWnd -4 -4 -4 -2 -2 -2 -2 -2 -7 -7 -9 -9 -9 -9
HWnd 7 7 7 2 2 2 2 2 4 4 8 8 8 8
R17/35
XWnd 3 3 3 -1 -1 -1 -1 -1 -2 -2 -0 -0 -0 -0
HWnd 8 8 8 3 3 3 3 3 8 8 12 12 12 12
Raw TAF
KHOU 270520Z 2706/2806 16008KT P6SM FEW045
  FM271000 19003KT P6SM SCT015 BKN025
  FM271500 19008KT P6SM FEW015 SCT030
  FM271700 18012KT P6SM SCT250
  FM280300 17007KT P6SM SCT025


Raw METAR
KHOU 270653Z 16008KT 10SM FEW050 25/22 A2986 RMK AO2 SLP116 T02500217
KHOU 270553Z 16008KT 10SM CLR 25/22 A2987 RMK AO2 SLP118 T02500217 10283 20250 403170200 50000
KHOU 270453Z 16007KT 10SM CLR 25/21 A2987 RMK AO2 SLP120 T02500211

METAR Board
Radar Display
Forecast Discussion
For situational awareness. Not to be used for flight planning purposes.